createdAt,value
2017-04-21T04:00:50.253Z,4
2017-04-21T04:01:15.746Z,8
2017-04-21T04:01:41.264Z,4
2017-04-21T04:02:06.774Z,4
2017-04-21T04:02:32.327Z,4
2017-04-21T04:02:57.813Z,4
2017-04-21T04:03:23.307Z,8
2017-04-21T04:03:48.792Z,4
2017-04-21T04:04:14.320Z,8
2017-04-21T04:04:39.884Z,8
2017-04-21T04:05:05.417Z,8
2017-04-21T04:05:30.902Z,8
2017-04-21T04:05:56.378Z,8
2017-04-21T04:06:21.927Z,12
2017-04-21T04:06:47.399Z,8
2017-04-21T04:07:12.888Z,12
2017-04-21T04:07:38.400Z,16
2017-04-21T04:08:03.973Z,12
2017-04-21T04:08:29.479Z,16
2017-04-21T04:08:54.999Z,16
2017-04-21T04:09:20.487Z,16
2017-04-21T04:09:46.003Z,20
2017-04-21T04:10:11.502Z,20
2017-04-21T04:10:37.022Z,20
2017-04-21T04:11:02.535Z,20
2017-04-21T04:11:28.029Z,24
2017-04-21T04:11:53.542Z,24
2017-04-21T04:12:19.030Z,24
2017-04-21T04:12:44.515Z,28
2017-04-21T04:13:10.017Z,32
2017-04-21T04:13:35.525Z,36
2017-04-21T04:14:01.031Z,40
2017-04-21T04:14:26.512Z,36
2017-04-21T04:14:52.030Z,44
2017-04-21T04:15:17.520Z,44
2017-04-21T04:15:43.025Z,52
2017-04-21T04:16:08.515Z,52
2017-04-21T04:16:34.062Z,56
2017-04-21T04:16:59.574Z,60
2017-04-21T04:17:25.102Z,60
2017-04-21T04:17:50.608Z,60
2017-04-21T04:18:16.098Z,64
2017-04-21T04:18:41.632Z,64
2017-04-21T04:19:07.127Z,68
2017-04-21T04:19:32.661Z,72
2017-04-21T04:19:58.159Z,76
2017-04-21T04:20:23.635Z,80
2017-04-21T04:20:49.167Z,84
2017-04-21T04:21:14.684Z,88
2017-04-21T04:21:40.181Z,92
2017-04-21T04:22:05.684Z,100
2017-04-21T04:22:31.171Z,100
2017-04-21T04:22:56.672Z,108
2017-04-21T04:23:22.206Z,112
2017-04-21T04:23:47.709Z,120
2017-04-21T04:24:13.269Z,128
2017-04-21T04:24:38.733Z,132
2017-04-21T04:25:04.271Z,140
2017-04-21T04:25:29.738Z,148
2017-04-21T04:25:55.213Z,156
2017-04-21T04:26:20.697Z,160
2017-04-21T04:26:46.184Z,168
2017-04-21T04:27:11.707Z,176
2017-04-21T04:27:37.173Z,184
2017-04-21T04:28:40.787Z,200
2017-04-21T04:29:06.292Z,212
2017-04-21T04:29:31.781Z,220
2017-04-21T04:29:57.256Z,232
2017-04-21T04:30:22.780Z,248
2017-04-21T04:30:48.314Z,256
2017-04-21T04:31:13.848Z,268
2017-04-21T04:31:39.331Z,280
2017-04-21T04:32:04.841Z,296
2017-04-21T04:32:30.371Z,308
2017-04-21T04:32:55.863Z,316
2017-04-21T04:33:21.373Z,324
2017-04-21T04:33:46.909Z,324
2017-04-21T04:34:12.398Z,332
2017-04-21T04:34:37.893Z,340
2017-04-21T04:35:03.455Z,352
2017-04-21T04:35:28.990Z,364
2017-04-21T04:35:54.485Z,380
2017-04-21T04:36:19.951Z,392
2017-04-21T04:36:45.447Z,412
2017-04-21T04:37:10.922Z,432
2017-04-21T04:37:36.439Z,444
2017-04-21T04:38:01.951Z,456
2017-04-21T04:38:27.442Z,464
2017-04-21T04:38:52.965Z,472
2017-04-21T04:39:18.478Z,480
2017-04-21T04:39:44.041Z,496
2017-04-21T04:40:09.533Z,504
2017-04-21T04:40:35.101Z,516
2017-04-21T04:41:00.656Z,520
2017-04-21T04:41:26.162Z,520
2017-04-21T04:41:51.696Z,512
2017-04-21T04:42:17.216Z,496
2017-04-21T04:42:42.734Z,488
2017-04-21T04:43:08.287Z,492
2017-04-21T04:43:33.880Z,508
2017-04-21T04:43:59.521Z,532
2017-04-21T04:44:25.117Z,560
2017-04-21T04:44:50.617Z,572
2017-04-21T04:45:16.162Z,588
2017-04-21T04:45:41.680Z,596
2017-04-21T04:46:07.183Z,616
2017-04-21T04:46:32.746Z,636
2017-04-21T04:46:58.217Z,664
2017-04-21T04:47:23.731Z,696
2017-04-21T04:47:49.264Z,708
2017-04-21T04:48:14.762Z,712
2017-04-21T04:48:40.267Z,696
2017-04-21T04:49:05.822Z,692
2017-04-21T04:49:31.317Z,704
2017-04-21T04:49:56.824Z,716
2017-04-21T04:50:22.333Z,720
2017-04-21T04:50:47.820Z,724
2017-04-21T04:51:13.294Z,728
2017-04-21T04:51:38.811Z,748
2017-04-21T04:52:04.325Z,764
2017-04-21T04:52:29.842Z,788
2017-04-21T04:52:55.347Z,808
2017-04-21T04:53:20.828Z,820
2017-04-21T04:53:46.336Z,832
2017-04-21T04:54:11.829Z,840
2017-04-21T04:54:37.313Z,848
2017-04-21T04:55:02.813Z,836
2017-04-21T04:55:28.325Z,808
2017-04-21T04:55:53.815Z,788
2017-04-21T04:56:19.314Z,784
2017-04-21T04:56:44.817Z,784
2017-04-21T04:57:10.331Z,784
2017-04-21T04:57:35.814Z,792
2017-04-21T04:58:01.298Z,800
2017-04-21T04:58:26.769Z,808
2017-04-21T04:58:52.283Z,804
2017-04-21T04:59:17.832Z,796
2017-04-21T04:59:43.348Z,788
2017-04-21T05:00:08.824Z,780
2017-04-21T05:00:34.360Z,780
2017-04-21T05:00:59.874Z,784
2017-04-21T05:01:25.374Z,780
2017-04-21T05:01:50.872Z,764
2017-04-21T05:02:16.377Z,756
2017-04-21T05:02:41.863Z,768
2017-04-21T05:03:07.379Z,828
2017-04-21T05:03:32.861Z,896
2017-04-21T05:03:58.361Z,940
2017-04-21T05:04:23.875Z,928
2017-04-21T05:04:49.411Z,912
2017-04-21T05:05:14.919Z,908
2017-04-21T05:05:40.409Z,908
2017-04-21T05:06:05.927Z,896
2017-04-21T05:06:31.454Z,896
2017-04-21T05:06:56.967Z,904
2017-04-21T05:07:22.447Z,924
2017-04-21T05:07:47.961Z,932
2017-04-21T05:08:13.528Z,936
2017-04-21T05:08:39.030Z,940
2017-04-21T05:09:04.547Z,936
2017-04-21T05:09:30.026Z,940
2017-04-21T05:09:55.564Z,948
2017-04-21T05:10:21.112Z,984
2017-04-21T05:10:46.641Z,1032
2017-04-21T05:11:12.150Z,1100
2017-04-21T05:11:37.633Z,1180
2017-04-21T05:12:03.163Z,1228
2017-04-21T05:12:28.831Z,1264
2017-04-21T05:12:54.296Z,1288
2017-04-21T05:13:19.796Z,1316
2017-04-21T05:13:45.340Z,1368
2017-04-21T05:14:10.840Z,1424
2017-04-21T05:14:36.349Z,1452
2017-04-21T05:15:01.831Z,1452
2017-04-21T05:15:27.488Z,1424
2017-04-21T05:15:53.009Z,1332
2017-04-21T05:16:18.508Z,1212
2017-04-21T05:16:43.996Z,1100
2017-04-21T05:17:09.532Z,1032
2017-04-21T05:17:35.012Z,1008
2017-04-21T05:18:00.531Z,1012
2017-04-21T05:18:26.045Z,1024
2017-04-21T05:18:51.556Z,1028
2017-04-21T05:19:17.100Z,1040
2017-04-21T05:19:42.602Z,1052
2017-04-21T05:20:08.163Z,1088
2017-04-21T05:20:33.719Z,1136
2017-04-21T05:20:59.247Z,1180
2017-04-21T05:21:24.730Z,1192
2017-04-21T05:21:50.243Z,1196
2017-04-21T05:22:15.738Z,1192
2017-04-21T05:22:41.236Z,1180
2017-04-21T05:23:06.725Z,1168
2017-04-21T05:23:32.222Z,1184
2017-04-21T05:23:57.719Z,1240
2017-04-21T05:24:23.226Z,1328
2017-04-21T05:24:48.755Z,1412
2017-04-21T05:25:14.256Z,1516
2017-04-21T05:25:39.779Z,1608
2017-04-21T05:26:05.316Z,1664
2017-04-21T05:26:30.919Z,1684
2017-04-21T05:26:56.421Z,1708
2017-04-21T05:27:21.932Z,1764
2017-04-21T05:27:47.443Z,1852
2017-04-21T05:28:12.931Z,1932
2017-04-21T05:28:38.461Z,2000
2017-04-21T05:29:03.962Z,2040
2017-04-21T05:29:29.467Z,2044
2017-04-21T05:29:54.964Z,1996
2017-04-21T05:30:20.469Z,1968
2017-04-21T05:30:45.983Z,1984
2017-04-21T05:31:11.532Z,2004
2017-04-21T05:31:37.049Z,2000
2017-04-21T05:32:02.570Z,1928
2017-04-21T05:32:28.053Z,1888
2017-04-21T05:32:53.573Z,1880
2017-04-21T05:33:19.126Z,1876
2017-04-21T05:33:44.691Z,1864
2017-04-21T05:34:10.130Z,1856
2017-04-21T05:34:35.618Z,1872
2017-04-21T05:35:01.131Z,1904
2017-04-21T05:35:26.625Z,1948
2017-04-21T05:35:52.114Z,1984
2017-04-21T05:36:17.623Z,2040
2017-04-21T05:36:43.123Z,2112
2017-04-21T05:37:08.616Z,2172
2017-04-21T05:37:34.144Z,2264
2017-04-21T05:37:59.662Z,2348
2017-04-21T05:38:25.168Z,2396
2017-04-21T05:38:50.644Z,2388
2017-04-21T05:39:16.145Z,2376
2017-04-21T05:39:41.685Z,2360
2017-04-21T05:40:07.159Z,2320
2017-04-21T05:40:32.641Z,2300
2017-04-21T05:40:58.149Z,2344
2017-04-21T05:41:23.658Z,2432
2017-04-21T05:41:49.137Z,2448
2017-04-21T05:42:14.652Z,2440
2017-04-21T05:42:40.188Z,2468
2017-04-21T05:43:05.657Z,2504
2017-04-21T05:43:31.162Z,2512
2017-04-21T05:43:56.681Z,2492
2017-04-21T05:44:22.158Z,2448
2017-04-21T05:44:47.677Z,2420
2017-04-21T05:45:13.184Z,2384
2017-04-21T05:45:38.662Z,2392
2017-04-21T05:46:05.089Z,2416
2017-04-21T05:46:30.587Z,2432
2017-04-21T05:46:56.087Z,2388
2017-04-21T05:47:21.562Z,2344
2017-04-21T05:47:47.073Z,2316
2017-04-21T05:48:12.592Z,2304
2017-04-21T05:48:38.062Z,2284
2017-04-21T05:49:03.588Z,2216
2017-04-21T05:49:29.079Z,2124
2017-04-21T05:49:54.602Z,2036
2017-04-21T05:50:20.152Z,1996
2017-04-21T05:50:45.668Z,2012
2017-04-21T05:51:11.167Z,2028
2017-04-21T05:51:36.656Z,2044
2017-04-21T05:52:02.150Z,2056
2017-04-21T05:52:27.678Z,2076
2017-04-21T05:52:53.146Z,2092
2017-04-21T05:53:18.655Z,2108
2017-04-21T05:53:44.156Z,2196
2017-04-21T05:54:09.676Z,2336
2017-04-21T05:54:35.168Z,2524
2017-04-21T05:55:00.687Z,2664
2017-04-21T05:55:26.191Z,2756
2017-04-21T05:55:51.715Z,2844
2017-04-21T05:56:17.214Z,2916
2017-04-21T05:56:42.722Z,2992
2017-04-21T05:57:08.250Z,3016
2017-04-21T05:57:33.762Z,3020
2017-04-21T05:57:59.254Z,3052
2017-04-21T05:58:24.758Z,3100
2017-04-21T05:58:50.269Z,3152
2017-04-21T05:59:15.766Z,3204
2017-04-21T05:59:41.250Z,3264
2017-04-21T06:00:06.761Z,3260
2017-04-21T06:00:32.260Z,3248
2017-04-21T06:00:57.764Z,3260
2017-04-21T06:01:23.335Z,3272
2017-04-21T06:01:48.855Z,3288
2017-04-21T06:02:14.347Z,3324
2017-04-21T06:02:39.838Z,3404
2017-04-21T06:03:05.366Z,3484
2017-04-21T06:03:30.885Z,3548
2017-04-21T06:03:56.398Z,3592
2017-04-21T06:04:21.894Z,3608
2017-04-21T06:04:47.380Z,3628
2017-04-21T06:05:12.874Z,3648
2017-04-21T06:05:38.383Z,3668
2017-04-21T06:06:03.873Z,3692
2017-04-21T06:06:29.423Z,3756
2017-04-21T06:06:54.908Z,3848
2017-04-21T06:07:20.403Z,3908
2017-04-21T06:07:45.936Z,3968
2017-04-21T06:08:11.479Z,4028
2017-04-21T06:08:37.008Z,4060
2017-04-21T06:09:02.529Z,4044
2017-04-21T06:09:28.078Z,4012
2017-04-21T06:09:53.584Z,3960
2017-04-21T06:10:19.091Z,3956
2017-04-21T06:10:44.618Z,4000
2017-04-21T06:11:10.142Z,4092
2017-04-21T06:11:35.633Z,4196
2017-04-21T06:12:01.147Z,4288
2017-04-21T06:12:26.680Z,4412
2017-04-21T06:12:52.190Z,4532
2017-04-21T06:13:17.698Z,4564
2017-04-21T06:13:43.202Z,4544
2017-04-21T06:14:08.704Z,4516
2017-04-21T06:14:34.182Z,4460
2017-04-21T06:14:59.706Z,4428
2017-04-21T06:15:25.209Z,4364
2017-04-21T06:15:50.683Z,4336
2017-04-21T06:16:16.191Z,4336
2017-04-21T06:16:41.663Z,4400
2017-04-21T06:17:07.204Z,4488
2017-04-21T06:17:32.671Z,4520
2017-04-21T06:17:58.164Z,4532
2017-04-21T06:18:23.643Z,4552
2017-04-21T06:18:49.143Z,4596
2017-04-21T06:19:14.624Z,4692
2017-04-21T06:19:40.135Z,4776
2017-04-21T06:20:05.625Z,4864
2017-04-21T06:20:31.141Z,4948
2017-04-21T06:20:56.668Z,5028
2017-04-21T06:21:22.129Z,5088
2017-04-21T06:21:47.646Z,5024
2017-04-21T06:22:13.132Z,4936
2017-04-21T06:22:38.629Z,4908
2017-04-21T06:23:04.143Z,4928
2017-04-21T06:23:29.625Z,4976
2017-04-21T06:23:55.131Z,5052
2017-04-21T06:24:20.630Z,5124
2017-04-21T06:24:46.113Z,5148
2017-04-21T06:25:11.633Z,5128
2017-04-21T06:25:37.114Z,5100
2017-04-21T06:26:02.644Z,5076
2017-04-21T06:26:28.164Z,5048
2017-04-21T06:26:53.658Z,5072
2017-04-21T06:27:19.145Z,5112
2017-04-21T06:27:44.681Z,5160
2017-04-21T06:28:10.157Z,5200
2017-04-21T06:28:35.707Z,5188
2017-04-21T06:29:01.225Z,5148
2017-04-21T06:29:26.744Z,5144
2017-04-21T06:29:52.228Z,5148
2017-04-21T06:30:17.756Z,5152
2017-04-21T06:30:43.263Z,5164
2017-04-21T06:31:08.765Z,5100
2017-04-21T06:31:34.284Z,5016
2017-04-21T06:31:59.797Z,4944
2017-04-21T06:32:25.305Z,4980
2017-04-21T06:32:50.834Z,5152
2017-04-21T06:33:16.340Z,5392
2017-04-21T06:33:41.822Z,5644
2017-04-21T06:34:07.322Z,5808
2017-04-21T06:34:32.815Z,5904
2017-04-21T06:34:58.374Z,6032
2017-04-21T06:35:23.896Z,6216
2017-04-21T06:35:49.390Z,6380
2017-04-21T06:36:14.909Z,6440
2017-04-21T06:36:40.429Z,6480
2017-04-21T06:37:05.924Z,6500
2017-04-21T06:37:31.435Z,6460
2017-04-21T06:37:56.956Z,6416
2017-04-21T06:38:22.453Z,6340
2017-04-21T06:38:47.965Z,6248
2017-04-21T06:39:13.445Z,6296
2017-04-21T06:39:38.988Z,6444
2017-04-21T06:40:04.468Z,6728
2017-04-21T06:40:29.992Z,6988
2017-04-21T06:40:55.464Z,7184
2017-04-21T06:41:20.985Z,7284
2017-04-21T06:41:46.480Z,7304
2017-04-21T06:42:11.989Z,7328
2017-04-21T06:42:37.509Z,7416
2017-04-21T06:43:03.012Z,7560
2017-04-21T06:43:28.543Z,7656
2017-04-21T06:43:54.005Z,7692
2017-04-21T06:44:19.536Z,7692
2017-04-21T06:44:45.033Z,7684
2017-04-21T06:45:10.566Z,7700
2017-04-21T06:45:36.065Z,7660
2017-04-21T06:46:01.580Z,7600
2017-04-21T06:46:27.104Z,7604
2017-04-21T06:46:52.603Z,7644
2017-04-21T06:47:18.112Z,7676
2017-04-21T06:47:43.636Z,7692
2017-04-21T06:48:09.190Z,7656
2017-04-21T06:48:34.686Z,7552
2017-04-21T06:49:00.234Z,7484
2017-04-21T06:49:25.743Z,7488
2017-04-21T06:49:51.256Z,7596
2017-04-21T06:50:16.744Z,7660
2017-04-21T06:50:42.223Z,7720
2017-04-21T06:51:07.752Z,7968
2017-04-21T06:51:33.239Z,8220
2017-04-21T06:51:58.778Z,8360
2017-04-21T06:52:24.290Z,8280
2017-04-21T06:52:49.798Z,8076
2017-04-21T06:53:15.316Z,7804
2017-04-21T06:53:40.847Z,7536
2017-04-21T06:54:06.373Z,7248
2017-04-21T06:54:31.927Z,6960
2017-04-21T06:54:57.467Z,6596
2017-04-21T06:55:23.041Z,6156
2017-04-21T06:55:48.533Z,5700
2017-04-21T06:56:14.065Z,5292
2017-04-21T06:56:39.569Z,4960
2017-04-21T06:57:05.104Z,4680
2017-04-21T06:57:30.614Z,4456
2017-04-21T06:57:56.117Z,4308
2017-04-21T06:58:21.651Z,4312
2017-04-21T06:58:47.165Z,4480
2017-04-21T06:59:12.678Z,4712
2017-04-21T06:59:38.207Z,4940
2017-04-21T07:00:03.673Z,5020
2017-04-21T07:00:29.170Z,4828
2017-04-21T07:00:54.684Z,4600
2017-04-21T07:01:20.195Z,4444
2017-04-21T07:01:45.708Z,4380
2017-04-21T07:02:11.212Z,4504
2017-04-21T07:02:36.704Z,4796
2017-04-21T07:03:02.221Z,5192
2017-04-21T07:03:27.716Z,5736
2017-04-21T07:03:53.224Z,6292
2017-04-21T07:04:18.719Z,6776
2017-04-21T07:04:44.225Z,7076
2017-04-21T07:05:09.753Z,7112
2017-04-21T07:05:35.240Z,7120
2017-04-21T07:06:00.737Z,7016
2017-04-21T07:06:26.293Z,6820
2017-04-21T07:06:51.784Z,6580
2017-04-21T07:07:17.290Z,6412
2017-04-21T07:07:42.811Z,6416
2017-04-21T07:08:08.325Z,6572
2017-04-21T07:08:33.817Z,6816
2017-04-21T07:08:59.295Z,6980
2017-04-21T07:09:24.815Z,7004
2017-04-21T07:09:50.348Z,6892
2017-04-21T07:10:15.858Z,6788
2017-04-21T07:10:41.354Z,6676
2017-04-21T07:11:06.861Z,6552
2017-04-21T07:11:32.437Z,6412
2017-04-21T07:11:57.975Z,6496
2017-04-21T07:12:23.514Z,6804
2017-04-21T07:12:49.022Z,7220
2017-04-21T07:13:14.515Z,7588
2017-04-21T07:13:40.013Z,7820
2017-04-21T07:14:05.515Z,7948
2017-04-21T07:14:31.009Z,8016
2017-04-21T07:14:56.510Z,8068
2017-04-21T07:15:22.008Z,7936
2017-04-21T07:15:47.572Z,7824
2017-04-21T07:16:13.055Z,7748
2017-04-21T07:16:38.564Z,7668
2017-04-21T07:17:04.129Z,7648
2017-04-21T07:17:29.609Z,7820
2017-04-21T07:17:55.117Z,8048
2017-04-21T07:18:20.627Z,8104
2017-04-21T07:18:46.159Z,8080
2017-04-21T07:19:11.674Z,8056
2017-04-21T07:19:37.218Z,7880
2017-04-21T07:20:02.706Z,7476
2017-04-21T07:20:28.195Z,6980
2017-04-21T07:20:53.695Z,6528
2017-04-21T07:21:19.221Z,6132
2017-04-21T07:21:44.726Z,5864
2017-04-21T07:22:10.223Z,5836
2017-04-21T07:22:35.739Z,6156
2017-04-21T07:23:01.256Z,6740
2017-04-21T07:23:26.769Z,7428
2017-04-21T07:23:52.269Z,7776
2017-04-21T07:24:17.772Z,7852
2017-04-21T07:24:43.271Z,7728
2017-04-21T07:25:08.788Z,7472
2017-04-21T07:25:34.315Z,7188
2017-04-21T07:25:59.806Z,7080
2017-04-21T07:26:25.312Z,7384
2017-04-21T07:26:50.805Z,7756
2017-04-21T07:27:16.333Z,8056
2017-04-21T07:27:41.838Z,8152
2017-04-21T07:28:07.337Z,7884
2017-04-21T07:28:32.830Z,7468
2017-04-21T07:28:58.344Z,7340
2017-04-21T07:29:23.844Z,7548
2017-04-21T07:29:49.342Z,7820
2017-04-21T07:30:14.854Z,7904
2017-04-21T07:30:40.345Z,7760
2017-04-21T07:31:05.825Z,7488
2017-04-21T07:31:31.340Z,7500
2017-04-21T07:31:56.859Z,7548
2017-04-21T07:32:22.338Z,7660
2017-04-21T07:32:47.832Z,7872
2017-04-21T07:33:13.336Z,8100
2017-04-21T07:33:38.838Z,8400
2017-04-21T07:34:04.338Z,8748
2017-04-21T07:34:29.830Z,8952
2017-04-21T07:34:55.305Z,9008
2017-04-21T07:35:20.805Z,8968
2017-04-21T07:36:11.768Z,8564
2017-04-21T07:36:37.291Z,8404
2017-04-21T07:37:02.801Z,8280
2017-04-21T07:37:28.300Z,8296
2017-04-21T07:37:53.779Z,8364
2017-04-21T07:38:19.273Z,8388
2017-04-21T07:38:44.771Z,8380
2017-04-21T07:39:10.267Z,8344
2017-04-21T07:39:35.766Z,8236
2017-04-21T07:40:01.258Z,7964
2017-04-21T07:40:26.786Z,7744
2017-04-21T07:40:52.285Z,7744
2017-04-21T07:41:17.811Z,7936
2017-04-21T07:41:43.299Z,8220
2017-04-21T07:42:08.796Z,8424
2017-04-21T07:42:34.286Z,8620
2017-04-21T07:42:59.762Z,8940
2017-04-21T07:43:25.258Z,9244
2017-04-21T07:43:50.747Z,9460
2017-04-21T07:44:16.241Z,9584
2017-04-21T07:44:41.733Z,9696
2017-04-21T07:45:07.230Z,9716
2017-04-21T07:45:32.728Z,9632
2017-04-21T07:45:58.217Z,9360
2017-04-21T07:46:23.727Z,9076
2017-04-21T07:46:49.215Z,9212
2017-04-21T07:47:14.725Z,9516
2017-04-21T07:47:40.206Z,9592
2017-04-21T07:48:05.752Z,9380
2017-04-21T07:48:31.230Z,9108
2017-04-21T07:48:56.742Z,8920
2017-04-21T07:49:22.247Z,8940
2017-04-21T07:49:47.756Z,8960
2017-04-21T07:50:13.272Z,9064
2017-04-21T07:50:38.743Z,9056
2017-04-21T07:51:04.252Z,8988
2017-04-21T07:51:29.781Z,8872
2017-04-21T07:51:55.271Z,8704
2017-04-21T07:52:20.800Z,8596
2017-04-21T07:52:46.330Z,8524
2017-04-21T07:53:11.817Z,8552
2017-04-21T07:53:37.320Z,8664
2017-04-21T07:54:02.806Z,8748
2017-04-21T07:54:28.317Z,8836
2017-04-21T07:54:53.804Z,8844
2017-04-21T07:55:19.286Z,8816
2017-04-21T07:55:44.777Z,8940
2017-04-21T07:56:10.298Z,9016
2017-04-21T08:01:37.947Z,10624
2017-04-21T08:02:03.437Z,10932
2017-04-21T08:02:28.919Z,11364
2017-04-21T08:02:54.408Z,11636
2017-04-21T08:03:19.919Z,11788
2017-04-21T08:03:45.356Z,11932
2017-04-21T08:04:10.838Z,12088
2017-04-21T08:04:36.323Z,12212
2017-04-21T08:05:01.819Z,12136
2017-04-21T08:05:27.325Z,11836
2017-04-21T08:05:52.791Z,11632
2017-04-21T08:06:18.271Z,11716
2017-04-21T08:06:43.737Z,11648
2017-04-21T08:07:09.220Z,11564
2017-04-21T08:07:34.708Z,11668
2017-04-21T08:08:00.211Z,11940
2017-04-21T08:08:25.706Z,12208
2017-04-21T08:08:51.217Z,12428
2017-04-21T08:09:16.737Z,12724
2017-04-21T08:09:42.203Z,13088
2017-04-21T08:10:07.710Z,13068
2017-04-21T08:10:33.160Z,12808
2017-04-21T08:10:58.655Z,12812
2017-04-21T08:11:24.128Z,13084
2017-04-21T08:11:49.621Z,13224
2017-04-21T08:12:15.148Z,13148
2017-04-21T08:12:40.629Z,12932
2017-04-21T08:13:06.110Z,12972
2017-04-21T08:13:31.646Z,12496
2017-04-21T08:13:57.095Z,12096
2017-04-21T08:14:22.542Z,11784
2017-04-21T08:14:48.028Z,11452
2017-04-21T08:15:13.510Z,11232
2017-04-21T08:15:38.992Z,11168
2017-04-21T08:16:04.463Z,10932
2017-04-21T08:16:29.942Z,10516
2017-04-21T08:16:55.419Z,9876
2017-04-21T08:17:20.906Z,9064
2017-04-21T08:17:46.373Z,8336
2017-04-21T08:18:11.868Z,7832
2017-04-21T08:18:37.354Z,7468
2017-04-21T08:19:02.813Z,7188
2017-04-21T08:19:28.288Z,7128
2017-04-21T08:19:53.750Z,7080
2017-04-21T08:20:19.246Z,6896
2017-04-21T08:20:44.717Z,6676
2017-04-21T08:21:10.208Z,6780
2017-04-21T08:21:35.656Z,7192
2017-04-21T08:22:01.149Z,7564
2017-04-21T08:22:26.647Z,8056
2017-04-21T08:22:52.132Z,8284
2017-04-21T08:23:17.612Z,8856
2017-04-21T08:23:43.101Z,9304
2017-04-21T08:24:08.566Z,9360
2017-04-21T08:24:34.042Z,9716
2017-04-21T08:24:59.523Z,10156
2017-04-21T08:25:25.012Z,9844
2017-04-21T08:25:50.519Z,9604
2017-04-21T08:26:15.979Z,9944
2017-04-21T08:26:41.446Z,10372
2017-04-21T08:27:06.923Z,10356
2017-04-21T08:27:32.402Z,10064
2017-04-21T08:27:57.864Z,9352
2017-04-21T08:28:23.363Z,8932
2017-04-21T08:28:48.892Z,8568
2017-04-21T08:29:14.371Z,8488
2017-04-21T08:29:39.838Z,8564
2017-04-21T08:30:05.329Z,8144
2017-04-21T08:30:30.790Z,7828
2017-04-21T08:30:56.265Z,7768
2017-04-21T08:31:21.751Z,7668
2017-04-21T08:31:47.262Z,7672
2017-04-21T08:32:12.716Z,7600
2017-04-21T08:32:38.217Z,7452
2017-04-21T08:33:03.664Z,7384
2017-04-21T08:33:29.137Z,7184
2017-04-21T08:33:54.602Z,7132
2017-04-21T08:34:20.078Z,7068
2017-04-21T08:34:45.547Z,6812
2017-04-21T08:35:11.038Z,6560
2017-04-21T08:35:36.524Z,6088
2017-04-21T08:36:01.971Z,5956
2017-04-21T08:36:27.466Z,6104
2017-04-21T08:36:52.921Z,6020
2017-04-21T08:37:18.436Z,5948
2017-04-21T08:37:43.886Z,6060
2017-04-21T08:38:09.353Z,6124
2017-04-21T08:38:34.846Z,5944
2017-04-21T08:39:00.330Z,5896
2017-04-21T08:39:25.759Z,5956
2017-04-21T08:39:51.241Z,5856
2017-04-21T08:40:16.697Z,5708
2017-04-21T08:40:42.155Z,5676
2017-04-21T08:41:07.647Z,5756
2017-04-21T08:41:33.153Z,5888
2017-04-21T08:41:58.624Z,6092
2017-04-21T08:42:24.101Z,6188
2017-04-21T08:42:49.588Z,6216
2017-04-21T08:43:15.079Z,6220
2017-04-21T08:43:40.537Z,6564
2017-04-21T08:44:06.047Z,6888
2017-04-21T08:44:31.492Z,7180
2017-04-21T08:44:56.965Z,7560
2017-04-21T08:45:22.456Z,8024
2017-04-21T08:45:47.924Z,8544
2017-04-21T08:46:13.416Z,9016
2017-04-21T08:46:38.903Z,9600
2017-04-21T08:47:04.371Z,10304
2017-04-21T08:47:29.839Z,10628
2017-04-21T08:47:55.322Z,10700
2017-04-21T08:48:20.834Z,10920
2017-04-21T08:48:46.298Z,11044
2017-04-21T08:49:11.770Z,11412
2017-04-21T08:49:37.270Z,11484
2017-04-21T08:50:02.761Z,11248
2017-04-21T08:50:28.225Z,10908
2017-04-21T08:50:53.708Z,10772
2017-04-21T08:51:19.221Z,10360
2017-04-21T08:51:44.704Z,9988
2017-04-21T08:52:10.181Z,9480
2017-04-21T08:52:35.651Z,9004
2017-04-21T08:53:01.134Z,8428
2017-04-21T08:53:26.603Z,7816
2017-04-21T08:53:52.068Z,7636
2017-04-21T08:54:17.541Z,7388
2017-04-21T08:54:43.026Z,7676
2017-04-21T08:55:08.557Z,8260
2017-04-21T08:55:34.007Z,8104
2017-04-21T08:55:59.486Z,7896
2017-04-21T08:56:24.945Z,7528
2017-04-21T08:56:50.437Z,7556
2017-04-21T08:57:15.924Z,7620
2017-04-21T08:57:41.391Z,7900
2017-04-21T08:58:06.888Z,8160
2017-04-21T08:58:32.374Z,8436
2017-04-21T08:58:57.860Z,8060
2017-04-21T08:59:23.351Z,7456
2017-04-21T08:59:48.820Z,7136
2017-04-21T09:00:14.303Z,6928
2017-04-21T09:00:39.798Z,6784
2017-04-21T09:01:05.307Z,6856
2017-04-21T09:01:30.793Z,7104
2017-04-21T09:01:56.281Z,7152
2017-04-21T09:02:21.782Z,7016
2017-04-21T09:02:47.250Z,7004
2017-04-21T09:03:12.731Z,6760
2017-04-21T09:03:38.237Z,6608
2017-04-21T09:04:03.705Z,6520
2017-04-21T09:04:29.179Z,6488
2017-04-21T09:04:54.648Z,6452
2017-04-21T09:05:20.133Z,6476
2017-04-21T09:05:45.672Z,6588
2017-04-21T09:06:11.159Z,6776
2017-04-21T09:06:36.680Z,6928
2017-04-21T09:07:02.138Z,7052
2017-04-21T09:07:27.603Z,7192
2017-04-21T09:07:53.066Z,7296
2017-04-21T09:08:18.592Z,7112
2017-04-21T09:08:44.063Z,7104
2017-04-21T09:09:09.538Z,7144
2017-04-21T09:09:35.005Z,7524
2017-04-21T09:10:00.489Z,8056
2017-04-21T09:10:25.938Z,8424
2017-04-21T09:12:10.298Z,7408
2017-04-21T09:12:35.782Z,7240
2017-04-21T09:13:01.264Z,7040
2017-04-21T09:13:26.756Z,6932
2017-04-21T09:13:52.220Z,7020
2017-04-21T09:14:17.671Z,7192
2017-04-21T09:14:43.172Z,7244
2017-04-21T09:15:08.660Z,7312
2017-04-21T09:15:34.146Z,7484
2017-04-21T09:15:59.598Z,7648
2017-04-21T09:16:25.082Z,7520
2017-04-21T09:16:50.526Z,7528
2017-04-21T09:17:15.995Z,7756
2017-04-21T09:17:41.463Z,8260
2017-04-21T09:18:06.945Z,8960
2017-04-21T09:18:32.426Z,10204
2017-04-21T09:18:57.882Z,11156
2017-04-21T09:19:23.411Z,10824
2017-04-21T09:19:48.883Z,11072
2017-04-21T09:20:14.378Z,10472
2017-04-21T09:20:39.854Z,9520
2017-04-21T09:21:05.377Z,8796
2017-04-21T09:21:30.862Z,8104
2017-04-21T09:21:56.344Z,8004
2017-04-21T09:22:21.805Z,7688
2017-04-21T09:22:47.301Z,7456
2017-04-21T09:23:12.779Z,7316
2017-04-21T09:23:38.248Z,7276
2017-04-21T09:24:03.708Z,7248
2017-04-21T09:24:29.199Z,7220
2017-04-21T09:24:54.688Z,7212
2017-04-21T09:25:20.149Z,7224
2017-04-21T09:25:45.636Z,7176
2017-04-21T09:26:11.111Z,7092
2017-04-21T09:26:36.587Z,6996
2017-04-21T09:27:02.089Z,6932
2017-04-21T09:27:27.586Z,6864
2017-04-21T09:27:53.081Z,6812
2017-04-21T09:28:18.544Z,6784
2017-04-21T09:28:44.053Z,6800
2017-04-21T09:29:09.557Z,6812
2017-04-21T09:29:35.019Z,6836
2017-04-21T09:30:00.509Z,6900
2017-04-21T09:30:26.014Z,6964
2017-04-21T09:30:51.488Z,7012
2017-04-21T09:31:16.983Z,7088
2017-04-21T09:31:42.436Z,7224
2017-04-21T09:32:07.920Z,7452
2017-04-21T09:32:33.406Z,7816
2017-04-21T09:32:58.917Z,8348
2017-04-21T09:33:24.372Z,8996
2017-04-21T09:33:49.850Z,9720
2017-04-21T09:34:15.321Z,10364
2017-04-21T09:34:40.772Z,10872
2017-04-21T09:35:06.247Z,11520
2017-04-21T09:35:31.727Z,12164
2017-04-21T09:35:57.304Z,12480
2017-04-21T09:36:22.783Z,12376
2017-04-21T09:36:48.248Z,12296
2017-04-21T09:37:13.712Z,11976
2017-04-21T09:37:39.176Z,11864
2017-04-21T09:38:04.710Z,11740
2017-04-21T09:38:30.189Z,11720
2017-04-21T09:38:55.672Z,11456
2017-04-21T09:39:21.138Z,10656
2017-04-21T09:39:46.598Z,10228
2017-04-21T09:40:12.066Z,9924
2017-04-21T09:40:37.570Z,9856
2017-04-21T09:41:03.045Z,9960
2017-04-21T09:41:28.548Z,10120
2017-04-21T09:41:54.066Z,10124
2017-04-21T09:42:19.547Z,10028
2017-04-21T09:42:45.032Z,10000
2017-04-21T09:43:10.527Z,10156
2017-04-21T09:43:36.002Z,10424
2017-04-21T09:44:01.493Z,10932
2017-04-21T09:44:26.975Z,11332
2017-04-21T09:44:52.466Z,11616
2017-04-21T09:45:17.942Z,11104
2017-04-21T09:45:43.450Z,10216
2017-04-21T09:46:08.903Z,9608
2017-04-21T09:46:34.382Z,9636
2017-04-21T09:46:59.871Z,10236
2017-04-21T09:47:25.339Z,11412
2017-04-21T09:47:50.815Z,12868
2017-04-21T09:48:16.290Z,14068
2017-04-21T09:48:41.841Z,14656
2017-04-21T09:49:07.314Z,15244
2017-04-21T09:49:32.800Z,15996